sensor_id;sensor_type;location;lat;lon;timestamp;P1;durP1;ratioP1;P2;durP2;ratioP2
41305;SDS011;27051;50.376;19.152;2023-06-10T00:00:41;22.20;;;16.10;;
41305;SDS011;27051;50.376;19.152;2023-06-10T00:03:52;21.20;;;14.00;;
41305;SDS011;27051;50.376;19.152;2023-06-10T00:06:19;21.60;;;15.00;;
41305;SDS011;27051;50.376;19.152;2023-06-10T00:08:47;22.00;;;15.50;;
41305;SDS011;27051;50.376;19.152;2023-06-10T00:11:19;23.70;;;15.30;;
41305;SDS011;27051;50.376;19.152;2023-06-10T00:14:01;22.70;;;15.30;;
41305;SDS011;27051;50.376;19.152;2023-06-10T00:20:20;22.90;;;16.50;;
41305;SDS011;27051;50.376;19.152;2023-06-10T00:22:50;26.80;;;15.40;;
41305;SDS011;27051;50.376;19.152;2023-06-10T00:25:17;20.70;;;13.80;;
41305;SDS011;27051;50.376;19.152;2023-06-10T00:27:46;20.90;;;13.00;;
41305;SDS011;27051;50.376;19.152;2023-06-10T00:38:59;16.90;;;12.60;;
41305;SDS011;27051;50.376;19.152;2023-06-10T00:41:40;19.90;;;13.00;;
41305;SDS011;27051;50.376;19.152;2023-06-10T00:44:07;22.10;;;12.60;;
41305;SDS011;27051;50.376;19.152;2023-06-10T00:46:55;22.20;;;12.40;;
41305;SDS011;27051;50.376;19.152;2023-06-10T00:51:59;17.30;;;12.10;;
41305;SDS011;27051;50.376;19.152;2023-06-10T00:54:58;19.60;;;13.30;;
41305;SDS011;27051;50.376;19.152;2023-06-10T00:57:45;22.00;;;13.00;;
41305;SDS011;27051;50.376;19.152;2023-06-10T01:01:08;19.60;;;12.80;;
41305;SDS011;27051;50.376;19.152;2023-06-10T01:03:16;19.90;;;12.20;;
41305;SDS011;27051;50.376;19.152;2023-06-10T01:05:44;23.40;;;13.60;;
41305;SDS011;27051;50.376;19.152;2023-06-10T01:11:46;20.20;;;13.00;;
41305;SDS011;27051;50.376;19.152;2023-06-10T01:14:16;19.40;;;12.70;;
41305;SDS011;27051;50.376;19.152;2023-06-10T01:16:43;18.40;;;13.10;;
41305;SDS011;27051;50.376;19.152;2023-06-10T01:19:31;19.00;;;12.70;;
41305;SDS011;27051;50.376;19.152;2023-06-10T01:22:08;19.70;;;12.00;;
41305;SDS011;27051;50.376;19.152;2023-06-10T01:24:44;17.70;;;12.00;;
41305;SDS011;27051;50.376;19.152;2023-06-10T01:27:19;21.60;;;14.10;;
41305;SDS011;27051;50.376;19.152;2023-06-10T01:30:07;22.50;;;13.00;;
41305;SDS011;27051;50.376;19.152;2023-06-10T01:35:48;20.70;;;13.60;;
41305;SDS011;27051;50.376;19.152;2023-06-10T01:38:17;20.50;;;14.00;;
41305;SDS011;27051;50.376;19.152;2023-06-10T01:40:49;18.80;;;13.40;;
41305;SDS011;27051;50.376;19.152;2023-06-10T01:43:19;23.50;;;14.20;;
41305;SDS011;27051;50.376;19.152;2023-06-10T01:46:00;19.70;;;13.40;;
41305;SDS011;27051;50.376;19.152;2023-06-10T01:48:27;17.80;;;12.80;;
41305;SDS011;27051;50.376;19.152;2023-06-10T01:50:54;22.70;;;15.10;;
41305;SDS011;27051;50.376;19.152;2023-06-10T01:53:21;24.00;;;18.00;;
41305;SDS011;27051;50.376;19.152;2023-06-10T01:58:57;27.50;;;20.70;;
41305;SDS011;27051;50.376;19.152;2023-06-10T02:01:33;29.70;;;20.30;;
41305;SDS011;27051;50.376;19.152;2023-06-10T02:04:11;30.20;;;21.50;;
41305;SDS011;27051;50.376;19.152;2023-06-10T02:06:44;28.90;;;20.00;;
41305;SDS011;27051;50.376;19.152;2023-06-10T02:09:11;25.50;;;17.80;;
41305;SDS011;27051;50.376;19.152;2023-06-10T02:14:35;21.30;;;15.40;;
41305;SDS011;27051;50.376;19.152;2023-06-10T02:17:23;21.30;;;14.90;;
41305;SDS011;27051;50.376;19.152;2023-06-10T02:19:52;24.20;;;15.30;;
41305;SDS011;27051;50.376;19.152;2023-06-10T02:22:43;21.70;;;15.10;;
41305;SDS011;27051;50.376;19.152;2023-06-10T02:25:10;21.90;;;15.50;;
41305;SDS011;27051;50.376;19.152;2023-06-10T02:27:47;25.30;;;15.70;;
41305;SDS011;27051;50.376;19.152;2023-06-10T02:30:26;23.80;;;15.50;;
41305;SDS011;27051;50.376;19.152;2023-06-10T02:32:52;23.00;;;15.90;;
41305;SDS011;27051;50.376;19.152;2023-06-10T02:35:19;22.50;;;15.80;;
41305;SDS011;27051;50.376;19.152;2023-06-10T02:40:30;23.00;;;16.50;;
41305;SDS011;27051;50.376;19.152;2023-06-10T02:42:57;22.90;;;16.10;;
41305;SDS011;27051;50.376;19.152;2023-06-10T02:45:26;25.50;;;16.10;;
41305;SDS011;27051;50.376;19.152;2023-06-10T02:47:53;24.80;;;17.70;;
41305;SDS011;27051;50.376;19.152;2023-06-10T02:50:20;26.20;;;18.10;;
41305;SDS011;27051;50.376;19.152;2023-06-10T02:53:02;26.70;;;20.80;;
41305;SDS011;27051;50.376;19.152;2023-06-10T02:55:30;26.60;;;20.20;;
41305;SDS011;27051;50.376;19.152;2023-06-10T02:57:56;32.00;;;20.30;;
41305;SDS011;27051;50.376;19.152;2023-06-10T03:00:23;27.20;;;19.70;;
41305;SDS011;27051;50.376;19.152;2023-06-10T03:05:46;24.80;;;17.70;;
41305;SDS011;27051;50.376;19.152;2023-06-10T03:11:58;26.80;;;17.60;;
41305;SDS011;27051;50.376;19.152;2023-06-10T03:14:26;26.30;;;16.50;;
41305;SDS011;27051;50.376;19.152;2023-06-10T03:17:14;23.10;;;16.10;;
41305;SDS011;27051;50.376;19.152;2023-06-10T03:19:56;21.60;;;15.60;;
41305;SDS011;27051;50.376;19.152;2023-06-10T03:22:26;23.80;;;16.40;;
41305;SDS011;27051;50.376;19.152;2023-06-10T03:24:55;24.00;;;16.20;;
41305;SDS011;27051;50.376;19.152;2023-06-10T03:27:53;24.30;;;17.10;;
41305;SDS011;27051;50.376;19.152;2023-06-10T03:30:42;23.70;;;15.10;;
41305;SDS011;27051;50.376;19.152;2023-06-10T03:33:48;21.80;;;15.80;;
41305;SDS011;27051;50.376;19.152;2023-06-10T03:37:20;21.00;;;14.40;;
41305;SDS011;27051;50.376;19.152;2023-06-10T03:39:25;23.40;;;14.70;;
41305;SDS011;27051;50.376;19.152;2023-06-10T03:41:55;22.00;;;14.20;;
41305;SDS011;27051;50.376;19.152;2023-06-10T03:44:25;22.30;;;13.30;;
41305;SDS011;27051;50.376;19.152;2023-06-10T03:46:51;19.90;;;13.60;;
41305;SDS011;27051;50.376;19.152;2023-06-10T03:49:28;21.10;;;13.70;;
41305;SDS011;27051;50.376;19.152;2023-06-10T03:51:55;21.20;;;13.80;;
41305;SDS011;27051;50.376;19.152;2023-06-10T03:54:21;22.10;;;13.60;;
41305;SDS011;27051;50.376;19.152;2023-06-10T03:56:48;22.10;;;14.20;;
41305;SDS011;27051;50.376;19.152;2023-06-10T03:59:27;20.10;;;14.00;;
41305;SDS011;27051;50.376;19.152;2023-06-10T04:05:48;21.20;;;14.10;;
41305;SDS011;27051;50.376;19.152;2023-06-10T04:07:54;21.20;;;13.20;;
41305;SDS011;27051;50.376;19.152;2023-06-10T04:10:44;20.90;;;13.90;;
41305;SDS011;27051;50.376;19.152;2023-06-10T04:16:28;27.10;;;13.70;;
41305;SDS011;27051;50.376;19.152;2023-06-10T04:19:18;18.90;;;12.80;;
41305;SDS011;27051;50.376;19.152;2023-06-10T04:21:44;21.40;;;13.10;;
41305;SDS011;27051;50.376;19.152;2023-06-10T04:24:11;20.40;;;13.00;;
41305;SDS011;27051;50.376;19.152;2023-06-10T04:26:38;20.00;;;13.10;;
41305;SDS011;27051;50.376;19.152;2023-06-10T04:29:04;18.00;;;12.10;;
41305;SDS011;27051;50.376;19.152;2023-06-10T04:31:34;19.70;;;12.70;;
41305;SDS011;27051;50.376;19.152;2023-06-10T04:40:09;26.60;;;14.00;;
41305;SDS011;27051;50.376;19.152;2023-06-10T04:45:26;24.00;;;16.70;;
41305;SDS011;27051;50.376;19.152;2023-06-10T04:48:14;22.80;;;15.30;;
41305;SDS011;27051;50.376;19.152;2023-06-10T04:53:49;19.00;;;13.40;;
41305;SDS011;27051;50.376;19.152;2023-06-10T04:56:22;21.40;;;14.00;;
41305;SDS011;27051;50.376;19.152;2023-06-10T04:58:52;20.70;;;13.50;;
41305;SDS011;27051;50.376;19.152;2023-06-10T05:04:56;21.10;;;13.60;;
41305;SDS011;27051;50.376;19.152;2023-06-10T05:07:25;19.20;;;13.30;;
41305;SDS011;27051;50.376;19.152;2023-06-10T05:09:53;18.10;;;13.20;;
41305;SDS011;27051;50.376;19.152;2023-06-10T05:12:20;19.70;;;12.20;;
41305;SDS011;27051;50.376;19.152;2023-06-10T05:24:13;15.90;;;11.40;;
41305;SDS011;27051;50.376;19.152;2023-06-10T05:26:40;19.00;;;12.80;;
41305;SDS011;27051;50.376;19.152;2023-06-10T05:29:07;22.00;;;13.00;;
41305;SDS011;27051;50.376;19.152;2023-06-10T05:31:34;20.20;;;13.70;;
41305;SDS011;27051;50.376;19.152;2023-06-10T05:34:01;22.80;;;12.80;;
41305;SDS011;27051;50.376;19.152;2023-06-10T05:36:27;17.70;;;11.90;;
41305;SDS011;27051;50.376;19.152;2023-06-10T05:39:02;16.80;;;12.40;;
41305;SDS011;27051;50.376;19.152;2023-06-10T05:41:38;18.40;;;11.80;;
41305;SDS011;27051;50.376;19.152;2023-06-10T05:44:05;16.00;;;11.10;;
41305;SDS011;27051;50.376;19.152;2023-06-10T05:46:31;18.10;;;10.80;;
41305;SDS011;27051;50.376;19.152;2023-06-10T05:49:01;14.70;;;9.10;;
41305;SDS011;27051;50.376;19.152;2023-06-10T05:51:28;16.70;;;9.80;;
41305;SDS011;27051;50.376;19.152;2023-06-10T05:53:55;15.70;;;9.40;;
41305;SDS011;27051;50.376;19.152;2023-06-10T05:56:22;13.00;;;9.40;;
41305;SDS011;27051;50.376;19.152;2023-06-10T05:58:49;21.30;;;9.90;;
41305;SDS011;27051;50.376;19.152;2023-06-10T06:01:16;13.90;;;8.30;;
41305;SDS011;27051;50.376;19.152;2023-06-10T06:03:42;15.20;;;9.00;;
41305;SDS011;27051;50.376;19.152;2023-06-10T06:06:18;13.40;;;8.90;;
41305;SDS011;27051;50.376;19.152;2023-06-10T06:08:45;13.00;;;8.20;;
41305;SDS011;27051;50.376;19.152;2023-06-10T06:11:12;15.40;;;8.70;;
41305;SDS011;27051;50.376;19.152;2023-06-10T06:14:02;13.60;;;7.40;;
41305;SDS011;27051;50.376;19.152;2023-06-10T06:16:29;16.30;;;8.40;;
41305;SDS011;27051;50.376;19.152;2023-06-10T06:18:59;13.20;;;8.70;;
41305;SDS011;27051;50.376;19.152;2023-06-10T06:21:26;14.30;;;8.60;;
41305;SDS011;27051;50.376;19.152;2023-06-10T06:23:52;18.30;;;8.90;;
41305;SDS011;27051;50.376;19.152;2023-06-10T06:26:20;10.80;;;7.70;;
41305;SDS011;27051;50.376;19.152;2023-06-10T06:31:24;10.90;;;6.90;;
41305;SDS011;27051;50.376;19.152;2023-06-10T06:33:54;10.20;;;6.60;;
41305;SDS011;27051;50.376;19.152;2023-06-10T06:36:20;9.20;;;6.50;;
41305;SDS011;27051;50.376;19.152;2023-06-10T06:38:47;13.60;;;7.00;;
41305;SDS011;27051;50.376;19.152;2023-06-10T06:41:14;10.30;;;6.60;;
41305;SDS011;27051;50.376;19.152;2023-06-10T06:43:41;17.60;;;7.50;;
41305;SDS011;27051;50.376;19.152;2023-06-10T06:46:09;11.00;;;7.00;;
41305;SDS011;27051;50.376;19.152;2023-06-10T06:48:35;14.30;;;7.20;;
41305;SDS011;27051;50.376;19.152;2023-06-10T06:51:02;24.60;;;14.40;;
41305;SDS011;27051;50.376;19.152;2023-06-10T06:53:29;12.00;;;6.90;;
41305;SDS011;27051;50.376;19.152;2023-06-10T06:55:56;12.10;;;7.70;;
41305;SDS011;27051;50.376;19.152;2023-06-10T06:58:23;15.70;;;7.70;;
41305;SDS011;27051;50.376;19.152;2023-06-10T07:00:50;13.30;;;7.70;;
41305;SDS011;27051;50.376;19.152;2023-06-10T07:03:35;16.60;;;8.30;;
41305;SDS011;27051;50.376;19.152;2023-06-10T07:06:11;12.30;;;7.80;;
41305;SDS011;27051;50.376;19.152;2023-06-10T07:08:41;12.30;;;7.50;;
41305;SDS011;27051;50.376;19.152;2023-06-10T07:11:08;11.10;;;7.20;;
41305;SDS011;27051;50.376;19.152;2023-06-10T07:13:35;14.70;;;7.60;;
41305;SDS011;27051;50.376;19.152;2023-06-10T07:16:05;9.10;;;7.00;;
41305;SDS011;27051;50.376;19.152;2023-06-10T07:18:42;12.40;;;7.30;;
41305;SDS011;27051;50.376;19.152;2023-06-10T07:21:10;11.60;;;7.10;;
41305;SDS011;27051;50.376;19.152;2023-06-10T07:23:43;12.10;;;7.40;;
41305;SDS011;27051;50.376;19.152;2023-06-10T07:26:10;13.40;;;6.90;;
41305;SDS011;27051;50.376;19.152;2023-06-10T07:28:37;12.50;;;7.00;;
41305;SDS011;27051;50.376;19.152;2023-06-10T07:31:04;9.90;;;6.30;;
41305;SDS011;27051;50.376;19.152;2023-06-10T07:33:31;11.90;;;6.30;;
41305;SDS011;27051;50.376;19.152;2023-06-10T07:35:57;9.90;;;5.90;;
41305;SDS011;27051;50.376;19.152;2023-06-10T07:38:27;12.40;;;6.60;;
41305;SDS011;27051;50.376;19.152;2023-06-10T07:40:54;9.30;;;5.60;;
41305;SDS011;27051;50.376;19.152;2023-06-10T07:43:21;7.60;;;5.70;;
41305;SDS011;27051;50.376;19.152;2023-06-10T07:45:48;10.40;;;6.60;;
41305;SDS011;27051;50.376;19.152;2023-06-10T07:48:17;10.90;;;6.80;;
41305;SDS011;27051;50.376;19.152;2023-06-10T07:50:44;9.40;;;5.80;;
41305;SDS011;27051;50.376;19.152;2023-06-10T07:53:11;8.90;;;5.50;;
41305;SDS011;27051;50.376;19.152;2023-06-10T07:55:38;8.40;;;6.10;;
41305;SDS011;27051;50.376;19.152;2023-06-10T07:58:05;9.80;;;6.20;;
41305;SDS011;27051;50.376;19.152;2023-06-10T08:00:32;8.00;;;5.80;;
41305;SDS011;27051;50.376;19.152;2023-06-10T08:03:02;9.80;;;6.20;;
41305;SDS011;27051;50.376;19.152;2023-06-10T08:05:29;9.60;;;5.60;;
41305;SDS011;27051;50.376;19.152;2023-06-10T08:07:55;8.20;;;5.90;;
41305;SDS011;27051;50.376;19.152;2023-06-10T08:10:22;10.60;;;5.60;;
41305;SDS011;27051;50.376;19.152;2023-06-10T08:12:50;10.20;;;5.90;;
41305;SDS011;27051;50.376;19.152;2023-06-10T08:15:16;10.10;;;6.70;;
41305;SDS011;27051;50.376;19.152;2023-06-10T08:17:44;9.00;;;6.60;;
41305;SDS011;27051;50.376;19.152;2023-06-10T08:20:11;8.40;;;5.70;;
41305;SDS011;27051;50.376;19.152;2023-06-10T08:22:37;10.90;;;6.50;;
41305;SDS011;27051;50.376;19.152;2023-06-10T08:25:08;7.80;;;6.10;;
41305;SDS011;27051;50.376;19.152;2023-06-10T08:30:29;10.90;;;6.40;;
41305;SDS011;27051;50.376;19.152;2023-06-10T08:32:56;10.60;;;6.90;;
41305;SDS011;27051;50.376;19.152;2023-06-10T08:35:42;14.90;;;6.60;;
41305;SDS011;27051;50.376;19.152;2023-06-10T08:38:30;11.40;;;6.90;;
41305;SDS011;27051;50.376;19.152;2023-06-10T08:41:00;8.00;;;6.30;;
41305;SDS011;27051;50.376;19.152;2023-06-10T08:43:34;9.00;;;6.00;;
41305;SDS011;27051;50.376;19.152;2023-06-10T08:46:12;10.60;;;6.20;;
41305;SDS011;27051;50.376;19.152;2023-06-10T08:51:24;8.90;;;5.90;;
41305;SDS011;27051;50.376;19.152;2023-06-10T08:54:14;12.10;;;6.20;;
41305;SDS011;27051;50.376;19.152;2023-06-10T08:56:44;10.20;;;6.60;;
41305;SDS011;27051;50.376;19.152;2023-06-10T08:59:15;8.70;;;5.80;;
41305;SDS011;27051;50.376;19.152;2023-06-10T09:01:51;9.70;;;6.10;;
41305;SDS011;27051;50.376;19.152;2023-06-10T09:04:19;21.50;;;13.40;;
41305;SDS011;27051;50.376;19.152;2023-06-10T09:06:46;9.40;;;6.20;;
41305;SDS011;27051;50.376;19.152;2023-06-10T09:09:16;8.30;;;6.10;;
41305;SDS011;27051;50.376;19.152;2023-06-10T09:11:45;7.90;;;6.20;;
41305;SDS011;27051;50.376;19.152;2023-06-10T09:14:12;12.30;;;6.30;;
41305;SDS011;27051;50.376;19.152;2023-06-10T09:16:40;7.80;;;6.00;;
41305;SDS011;27051;50.376;19.152;2023-06-10T09:19:08;10.20;;;5.80;;
41305;SDS011;27051;50.376;19.152;2023-06-10T09:21:35;11.10;;;6.10;;
41305;SDS011;27051;50.376;19.152;2023-06-10T09:24:02;10.10;;;5.70;;
41305;SDS011;27051;50.376;19.152;2023-06-10T09:27:01;9.70;;;5.50;;
41305;SDS011;27051;50.376;19.152;2023-06-10T09:29:30;7.80;;;5.30;;
41305;SDS011;27051;50.376;19.152;2023-06-10T09:31:57;6.50;;;4.70;;
41305;SDS011;27051;50.376;19.152;2023-06-10T09:34:25;11.20;;;4.50;;
41305;SDS011;27051;50.376;19.152;2023-06-10T09:36:55;6.70;;;4.50;;
41305;SDS011;27051;50.376;19.152;2023-06-10T09:39:25;9.40;;;4.50;;
41305;SDS011;27051;50.376;19.152;2023-06-10T09:41:53;7.60;;;4.70;;
41305;SDS011;27051;50.376;19.152;2023-06-10T09:44:22;7.80;;;4.60;;
41305;SDS011;27051;50.376;19.152;2023-06-10T09:46:49;6.90;;;4.90;;
41305;SDS011;27051;50.376;19.152;2023-06-10T09:49:16;9.40;;;4.60;;
41305;SDS011;27051;50.376;19.152;2023-06-10T09:51:48;8.30;;;4.40;;
41305;SDS011;27051;50.376;19.152;2023-06-10T09:54:16;9.10;;;4.80;;
41305;SDS011;27051;50.376;19.152;2023-06-10T09:56:42;8.20;;;4.90;;
41305;SDS011;27051;50.376;19.152;2023-06-10T09:59:09;6.10;;;4.70;;
41305;SDS011;27051;50.376;19.152;2023-06-10T10:01:36;7.00;;;4.50;;
41305;SDS011;27051;50.376;19.152;2023-06-10T10:04:03;10.70;;;4.70;;
41305;SDS011;27051;50.376;19.152;2023-06-10T10:06:30;6.00;;;4.70;;
41305;SDS011;27051;50.376;19.152;2023-06-10T10:08:56;6.00;;;4.60;;
41305;SDS011;27051;50.376;19.152;2023-06-10T10:11:24;5.40;;;4.30;;
41305;SDS011;27051;50.376;19.152;2023-06-10T10:13:51;8.10;;;4.60;;
41305;SDS011;27051;50.376;19.152;2023-06-10T10:16:20;7.90;;;4.80;;
41305;SDS011;27051;50.376;19.152;2023-06-10T10:18:51;10.30;;;4.80;;
41305;SDS011;27051;50.376;19.152;2023-06-10T10:21:25;8.40;;;4.20;;
41305;SDS011;27051;50.376;19.152;2023-06-10T10:24:00;7.50;;;4.60;;
41305;SDS011;27051;50.376;19.152;2023-06-10T10:26:31;5.30;;;4.40;;
41305;SDS011;27051;50.376;19.152;2023-06-10T10:31:43;6.70;;;4.00;;
41305;SDS011;27051;50.376;19.152;2023-06-10T10:34:12;8.80;;;4.50;;
41305;SDS011;27051;50.376;19.152;2023-06-10T10:36:42;5.90;;;4.10;;
41305;SDS011;27051;50.376;19.152;2023-06-10T10:39:10;5.90;;;4.40;;
41305;SDS011;27051;50.376;19.152;2023-06-10T10:41:38;5.90;;;4.60;;
41305;SDS011;27051;50.376;19.152;2023-06-10T10:44:06;7.00;;;4.10;;
41305;SDS011;27051;50.376;19.152;2023-06-10T10:46:48;4.40;;;4.00;;
41305;SDS011;27051;50.376;19.152;2023-06-10T10:49:17;6.50;;;4.30;;
41305;SDS011;27051;50.376;19.152;2023-06-10T10:51:57;4.60;;;3.70;;
41305;SDS011;27051;50.376;19.152;2023-06-10T10:54:32;6.70;;;4.20;;
41305;SDS011;27051;50.376;19.152;2023-06-10T10:57:09;6.90;;;4.60;;
41305;SDS011;27051;50.376;19.152;2023-06-10T11:02:15;5.20;;;4.30;;
41305;SDS011;27051;50.376;19.152;2023-06-10T11:04:47;8.20;;;4.40;;
41305;SDS011;27051;50.376;19.152;2023-06-10T11:07:14;7.10;;;4.40;;
41305;SDS011;27051;50.376;19.152;2023-06-10T11:12:55;5.80;;;4.40;;
41305;SDS011;27051;50.376;19.152;2023-06-10T11:15:27;7.20;;;4.40;;
41305;SDS011;27051;50.376;19.152;2023-06-10T11:18:15;8.50;;;4.40;;
41305;SDS011;27051;50.376;19.152;2023-06-10T11:23:29;4.60;;;4.10;;
41305;SDS011;27051;50.376;19.152;2023-06-10T11:33:57;4.70;;;4.30;;
41305;SDS011;27051;50.376;19.152;2023-06-10T11:36:43;4.80;;;4.30;;
41305;SDS011;27051;50.376;19.152;2023-06-10T11:39:12;6.00;;;4.40;;
41305;SDS011;27051;50.376;19.152;2023-06-10T11:41:39;4.60;;;4.20;;
41305;SDS011;27051;50.376;19.152;2023-06-10T11:46:39;5.00;;;4.10;;
41305;SDS011;27051;50.376;19.152;2023-06-10T11:49:07;6.60;;;4.10;;
41305;SDS011;27051;50.376;19.152;2023-06-10T11:51:34;5.50;;;4.20;;
41305;SDS011;27051;50.376;19.152;2023-06-10T11:54:03;4.90;;;4.20;;
41305;SDS011;27051;50.376;19.152;2023-06-10T11:56:31;8.30;;;4.30;;
41305;SDS011;27051;50.376;19.152;2023-06-10T11:59:03;4.60;;;4.20;;
41305;SDS011;27051;50.376;19.152;2023-06-10T12:01:34;6.30;;;4.50;;
41305;SDS011;27051;50.376;19.152;2023-06-10T12:04:12;7.00;;;4.50;;
41305;SDS011;27051;50.376;19.152;2023-06-10T12:06:52;5.10;;;4.10;;
41305;SDS011;27051;50.376;19.152;2023-06-10T12:09:29;8.40;;;4.00;;
41305;SDS011;27051;50.376;19.152;2023-06-10T12:19:59;5.10;;;4.10;;
41305;SDS011;27051;50.376;19.152;2023-06-10T12:22:35;4.70;;;4.30;;
41305;SDS011;27051;50.376;19.152;2023-06-10T12:25:07;7.00;;;4.40;;
41305;SDS011;27051;50.376;19.152;2023-06-10T12:27:35;5.30;;;4.70;;
41305;SDS011;27051;50.376;19.152;2023-06-10T12:30:03;8.40;;;5.10;;
41305;SDS011;27051;50.376;19.152;2023-06-10T12:32:41;6.90;;;4.40;;
41305;SDS011;27051;50.376;19.152;2023-06-10T12:35:10;7.50;;;4.40;;
41305;SDS011;27051;50.376;19.152;2023-06-10T12:37:39;5.00;;;4.30;;
41305;SDS011;27051;50.376;19.152;2023-06-10T12:40:10;6.20;;;4.80;;
41305;SDS011;27051;50.376;19.152;2023-06-10T12:42:38;9.20;;;4.30;;
41305;SDS011;27051;50.376;19.152;2023-06-10T12:45:06;4.70;;;4.20;;
41305;SDS011;27051;50.376;19.152;2023-06-10T12:47:34;6.00;;;4.30;;
41305;SDS011;27051;50.376;19.152;2023-06-10T12:50:15;4.50;;;4.00;;
41305;SDS011;27051;50.376;19.152;2023-06-10T12:52:46;4.90;;;4.40;;
41305;SDS011;27051;50.376;19.152;2023-06-10T12:55:12;4.80;;;4.40;;
41305;SDS011;27051;50.376;19.152;2023-06-10T12:57:47;6.30;;;4.30;;
41305;SDS011;27051;50.376;19.152;2023-06-10T13:00:14;7.20;;;4.80;;
41305;SDS011;27051;50.376;19.152;2023-06-10T13:02:43;6.50;;;4.20;;
41305;SDS011;27051;50.376;19.152;2023-06-10T13:05:11;8.70;;;4.30;;
41305;SDS011;27051;50.376;19.152;2023-06-10T13:07:40;4.80;;;4.40;;
41305;SDS011;27051;50.376;19.152;2023-06-10T13:10:07;6.90;;;4.70;;
41305;SDS011;27051;50.376;19.152;2023-06-10T13:12:34;7.80;;;4.60;;
41305;SDS011;27051;50.376;19.152;2023-06-10T13:15:01;7.80;;;4.70;;
41305;SDS011;27051;50.376;19.152;2023-06-10T13:17:41;7.10;;;4.90;;
41305;SDS011;27051;50.376;19.152;2023-06-10T13:20:11;5.30;;;4.80;;
41305;SDS011;27051;50.376;19.152;2023-06-10T13:22:38;5.50;;;4.90;;
41305;SDS011;27051;50.376;19.152;2023-06-10T13:25:08;5.40;;;4.80;;
41305;SDS011;27051;50.376;19.152;2023-06-10T13:27:35;6.50;;;5.10;;
41305;SDS011;27051;50.376;19.152;2023-06-10T13:30:02;5.50;;;4.90;;
41305;SDS011;27051;50.376;19.152;2023-06-10T13:32:29;6.60;;;5.10;;
41305;SDS011;27051;50.376;19.152;2023-06-10T13:34:56;6.80;;;4.70;;
41305;SDS011;27051;50.376;19.152;2023-06-10T13:37:23;6.80;;;4.60;;
41305;SDS011;27051;50.376;19.152;2023-06-10T13:39:49;8.70;;;5.00;;
41305;SDS011;27051;50.376;19.152;2023-06-10T13:42:17;6.60;;;5.20;;
41305;SDS011;27051;50.376;19.152;2023-06-10T13:44:44;5.50;;;4.30;;
41305;SDS011;27051;50.376;19.152;2023-06-10T13:47:11;6.30;;;5.00;;
41305;SDS011;27051;50.376;19.152;2023-06-10T13:49:38;6.30;;;5.00;;
41305;SDS011;27051;50.376;19.152;2023-06-10T13:52:05;6.40;;;4.40;;
41305;SDS011;27051;50.376;19.152;2023-06-10T13:54:42;5.30;;;4.60;;
41305;SDS011;27051;50.376;19.152;2023-06-10T13:57:08;6.00;;;4.70;;
41305;SDS011;27051;50.376;19.152;2023-06-10T13:59:35;10.10;;;5.20;;
41305;SDS011;27051;50.376;19.152;2023-06-10T14:02:01;9.20;;;5.20;;
41305;SDS011;27051;50.376;19.152;2023-06-10T14:04:28;14.10;;;4.90;;
41305;SDS011;27051;50.376;19.152;2023-06-10T14:06:55;9.90;;;5.10;;
41305;SDS011;27051;50.376;19.152;2023-06-10T14:09:21;8.80;;;4.50;;
41305;SDS011;27051;50.376;19.152;2023-06-10T14:11:48;7.90;;;4.50;;
41305;SDS011;27051;50.376;19.152;2023-06-10T14:14:15;5.90;;;5.00;;
41305;SDS011;27051;50.376;19.152;2023-06-10T14:16:42;14.60;;;6.00;;
41305;SDS011;27051;50.376;19.152;2023-06-10T14:19:08;7.30;;;4.50;;
41305;SDS011;27051;50.376;19.152;2023-06-10T14:21:35;8.70;;;5.10;;
41305;SDS011;27051;50.376;19.152;2023-06-10T14:24:02;9.00;;;5.10;;
41305;SDS011;27051;50.376;19.152;2023-06-10T14:26:28;8.00;;;5.30;;
41305;SDS011;27051;50.376;19.152;2023-06-10T14:28:55;11.80;;;6.60;;
41305;SDS011;27051;50.376;19.152;2023-06-10T14:31:22;8.20;;;5.90;;
41305;SDS011;27051;50.376;19.152;2023-06-10T14:33:49;9.80;;;5.90;;
41305;SDS011;27051;50.376;19.152;2023-06-10T14:36:15;8.10;;;6.10;;
41305;SDS011;27051;50.376;19.152;2023-06-10T14:38:42;9.60;;;6.40;;
41305;SDS011;27051;50.376;19.152;2023-06-10T14:41:09;13.60;;;6.70;;
41305;SDS011;27051;50.376;19.152;2023-06-10T14:43:35;11.60;;;7.20;;
41305;SDS011;27051;50.376;19.152;2023-06-10T14:46:02;9.80;;;6.60;;
41305;SDS011;27051;50.376;19.152;2023-06-10T14:48:29;12.10;;;7.30;;
41305;SDS011;27051;50.376;19.152;2023-06-10T14:50:56;12.00;;;7.70;;
41305;SDS011;27051;50.376;19.152;2023-06-10T14:53:22;13.50;;;7.60;;
41305;SDS011;27051;50.376;19.152;2023-06-10T14:55:49;11.90;;;7.90;;
41305;SDS011;27051;50.376;19.152;2023-06-10T14:58:15;12.30;;;7.90;;
41305;SDS011;27051;50.376;19.152;2023-06-10T15:00:42;10.40;;;7.50;;
41305;SDS011;27051;50.376;19.152;2023-06-10T15:03:09;13.30;;;7.20;;
41305;SDS011;27051;50.376;19.152;2023-06-10T15:05:36;9.80;;;7.20;;
41305;SDS011;27051;50.376;19.152;2023-06-10T15:08:04;10.40;;;7.60;;
41305;SDS011;27051;50.376;19.152;2023-06-10T15:10:31;9.40;;;6.90;;
41305;SDS011;27051;50.376;19.152;2023-06-10T15:12:57;9.70;;;7.10;;
41305;SDS011;27051;50.376;19.152;2023-06-10T15:15:24;9.10;;;6.80;;
41305;SDS011;27051;50.376;19.152;2023-06-10T15:17:52;10.30;;;7.40;;
41305;SDS011;27051;50.376;19.152;2023-06-10T15:20:19;10.60;;;7.10;;
41305;SDS011;27051;50.376;19.152;2023-06-10T15:22:46;8.70;;;6.60;;
41305;SDS011;27051;50.376;19.152;2023-06-10T15:25:13;8.60;;;6.90;;
41305;SDS011;27051;50.376;19.152;2023-06-10T15:27:49;11.80;;;7.80;;
41305;SDS011;27051;50.376;19.152;2023-06-10T15:30:16;12.20;;;8.20;;
41305;SDS011;27051;50.376;19.152;2023-06-10T15:32:43;14.10;;;7.70;;
41305;SDS011;27051;50.376;19.152;2023-06-10T15:35:09;11.10;;;7.40;;
41305;SDS011;27051;50.376;19.152;2023-06-10T15:37:36;12.70;;;7.50;;
41305;SDS011;27051;50.376;19.152;2023-06-10T15:40:03;10.60;;;7.70;;
41305;SDS011;27051;50.376;19.152;2023-06-10T15:42:30;12.10;;;7.60;;
41305;SDS011;27051;50.376;19.152;2023-06-10T15:44:57;9.10;;;6.60;;
41305;SDS011;27051;50.376;19.152;2023-06-10T15:47:24;10.30;;;7.30;;
41305;SDS011;27051;50.376;19.152;2023-06-10T15:49:51;8.60;;;6.60;;
41305;SDS011;27051;50.376;19.152;2023-06-10T15:52:29;10.10;;;6.40;;
41305;SDS011;27051;50.376;19.152;2023-06-10T15:54:56;8.70;;;5.90;;
41305;SDS011;27051;50.376;19.152;2023-06-10T15:57:23;9.50;;;5.50;;
41305;SDS011;27051;50.376;19.152;2023-06-10T15:59:49;9.60;;;5.60;;
41305;SDS011;27051;50.376;19.152;2023-06-10T16:02:16;7.30;;;5.30;;
41305;SDS011;27051;50.376;19.152;2023-06-10T16:04:43;6.80;;;5.50;;
41305;SDS011;27051;50.376;19.152;2023-06-10T16:07:09;7.10;;;5.50;;
41305;SDS011;27051;50.376;19.152;2023-06-10T16:09:36;10.00;;;5.40;;
41305;SDS011;27051;50.376;19.152;2023-06-10T16:12:03;7.50;;;5.00;;
41305;SDS011;27051;50.376;19.152;2023-06-10T16:14:30;7.80;;;5.40;;
41305;SDS011;27051;50.376;19.152;2023-06-10T16:16:57;9.10;;;5.00;;
41305;SDS011;27051;50.376;19.152;2023-06-10T16:19:24;6.90;;;4.90;;
41305;SDS011;27051;50.376;19.152;2023-06-10T16:21:51;5.60;;;4.70;;
41305;SDS011;27051;50.376;19.152;2023-06-10T16:24:17;6.40;;;4.80;;
41305;SDS011;27051;50.376;19.152;2023-06-10T16:26:44;8.00;;;4.70;;
41305;SDS011;27051;50.376;19.152;2023-06-10T16:29:20;9.00;;;5.10;;